This is the latest recevied weather packets stored in our database for station/object EA3CO-11. If no packets are shown the sender has not sent any weather packets the latest 10 day(s).
| Time | Temp. | Humidity | Pressure | Rain* | Wind** | Luminosity | Snow |
|---|---|---|---|---|---|---|---|
| 1777833164 | 16.11° C | 90% | 1017 hPa | - | - | - | - |
| 1777832264 | 16.11° C | 89% | 1016.9 hPa | - | - | - | - |
| 1777827763 | 16.11° C | 85% | 1016.7 hPa | - | - | - | - |
| 1777825063 | 16.67° C | 74% | 1017 hPa | - | - | - | - |
| 1777821462 | 16.67° C | 76% | 1016.9 hPa | - | - | - | - |
| 1777820562 | 17.22° C | 77% | 1016.8 hPa | - | - | - | - |
| 1777810661 | 18.89° C | 68% | 1018.5 hPa | - | - | - | - |
| 1777809765 | 18.33° C | 71% | 1018.8 hPa | - | - | - | - |
| 1777808861 | 18.33° C | 71% | 1019 hPa | - | - | - | - |
| 1777807325 | 19.44° C | 67% | 1019.3 hPa | - | - | - | - |
| 1777806425 | 18.33° C | 70% | 1019.3 hPa | - | - | - | - |
| 1777805519 | 17.78° C | 73% | 1019.6 hPa | - | - | - | - |
| 1777804609 | 17.22° C | 76% | 1019.8 hPa | - | - | - | - |
| 1777803708 | 17.78° C | 74% | 1019.6 hPa | - | - | - | - |
| 1777802808 | 17.22° C | 77% | 1019.7 hPa | - | - | - | - |
| 1777801908 | 17.22° C | 79% | 1019.7 hPa | - | - | - | - |
| 1777801008 | 17.22° C | 79% | 1019.5 hPa | - | - | - | - |
| 1777800108 | 16.67° C | 81% | 1019.6 hPa | - | - | - | - |
| 1777799208 | 16.67° C | 79% | 1019.6 hPa | - | - | - | - |
| 1777798308 | 16.67° C | 80% | 1019.5 hPa | - | - | - | - |
| 1777797408 | 16.67° C | 80% | 1019.3 hPa | - | - | - | - |
| 1777796508 | 16.67° C | 78% | 1019.4 hPa | - | - | - | - |
| 1777795607 | 16.67° C | 80% | 1019.4 hPa | - | - | - | - |
| 1777794707 | 16.67° C | 79% | 1019.3 hPa | - | - | - | - |
| 1777793807 | 16.67° C | 80% | 1019.3 hPa | - | - | - | - |
* Rain since midnight (hover to see other rain measurements)
** Current wind speed in m/s (hover to see current wind gust speed)